Time;durP1;ratioP1;P1;durP2;ratioP2;P2;SDS_P1;SDS_P2;PMS_P1;PMS_P2;Temp;Humidity;BMP_temperature;BMP_pressure;BME280_temperature;BME280_humidity;BME280_pressure;Samples;Min_cycle;Max_cycle;Signal;HPM_P1;HPM_P2
2023/10/24 00:01:49;;;;;;;7.28;1.83;;;11.90;99.90;;;;;;5057326;28;20834;-71
2023/10/24 00:04:17;;;;;;;4.25;2.08;;;11.90;99.90;;;;;;5057462;28;20040;-71
2023/10/24 00:06:45;;;;;;;6.15;1.88;;;11.90;99.90;;;;;;5066058;28;20832;-71
2023/10/24 00:09:11;;;;;;;6.13;1.90;;;11.80;99.90;;;;;;5059332;28;20657;-72
2023/10/24 00:11:37;;;;;;;9.05;2.22;;;11.70;99.90;;;;;;5068492;28;20028;-71
2023/10/24 00:14:03;;;;;;;7.68;2.10;;;11.70;99.90;;;;;;5053846;28;20047;-71
2023/10/24 00:16:31;;;;;;;4.85;2.05;;;11.70;99.90;;;;;;5060510;28;20090;-72
2023/10/24 00:18:59;;;;;;;7.35;1.77;;;11.70;99.90;;;;;;5064982;28;20040;-73
2023/10/24 00:21:25;;;;;;;4.28;1.98;;;11.70;99.90;;;;;;5052157;28;20048;-72
2023/10/24 00:23:53;;;;;;;6.50;2.35;;;11.70;99.90;;;;;;5064796;28;20090;-72
2023/10/24 00:26:21;;;;;;;3.53;1.63;;;11.70;99.90;;;;;;5055722;28;20028;-72
2023/10/24 00:28:47;;;;;;;4.38;1.70;;;11.80;99.90;;;;;;5055081;28;20032;-72
2023/10/24 00:31:12;;;;;;;9.00;2.45;;;11.80;99.90;;;;;;5050369;28;20129;-72
2023/10/24 00:33:41;;;;;;;4.35;1.95;;;11.80;99.90;;;;;;5066073;28;20035;-73
2023/10/24 00:36:06;;;;;;;3.97;1.85;;;11.90;99.90;;;;;;5047513;28;20036;-72
2023/10/24 00:38:33;;;;;;;5.75;1.60;;;11.90;99.90;;;;;;5066356;28;20039;-72
2023/10/24 00:41:06;;;;;;;5.65;1.63;;;12.00;99.90;;;;;;5047592;28;20032;-72
2023/10/24 00:43:37;;;;;;;7.55;1.90;;;11.90;99.90;;;;;;5060129;28;20538;-73
2023/10/24 00:46:03;;;;;;;6.80;1.90;;;11.90;99.90;;;;;;5053116;28;20504;-72
2023/10/24 00:48:30;;;;;;;5.85;1.90;;;11.90;99.90;;;;;;5059483;28;20032;-72
2023/10/24 00:51:00;;;;;;;5.18;1.63;;;11.90;99.90;;;;;;5053270;28;20047;-73
2023/10/24 00:53:26;;;;;;;5.25;1.77;;;11.90;99.90;;;;;;5065439;28;20028;-72
2023/10/24 00:55:54;;;;;;;4.55;2.13;;;12.00;99.90;;;;;;5048935;28;20043;-73
2023/10/24 00:58:23;;;;;;;7.32;2.08;;;12.00;99.90;;;;;;5067702;28;21206;-73
2023/10/24 01:00:49;;;;;;;5.60;1.60;;;12.00;99.90;;;;;;5050780;28;20031;-73
2023/10/24 01:03:16;;;;;;;7.57;1.90;;;12.00;99.90;;;;;;5061101;28;21245;-74
2023/10/24 01:05:42;;;;;;;5.55;1.70;;;12.00;99.90;;;;;;5058380;28;20127;-76
2023/10/24 01:08:13;;;;;;;6.50;1.83;;;12.00;99.90;;;;;;5061026;28;20388;-73
2023/10/24 01:10:39;;;;;;;6.35;1.67;;;12.00;99.90;;;;;;5064099;28;20569;-74
2023/10/24 01:13:05;;;;;;;3.67;1.70;;;12.00;99.90;;;;;;5055430;28;20131;-73
2023/10/24 01:15:33;;;;;;;5.07;1.58;;;12.00;99.90;;;;;;5061046;28;20098;-72
2023/10/24 01:17:59;;;;;;;3.63;1.60;;;12.00;99.90;;;;;;5055316;28;20544;-73
2023/10/24 01:20:27;;;;;;;3.70;1.77;;;12.00;99.90;;;;;;5064244;28;20125;-73
2023/10/24 01:22:56;;;;;;;3.85;1.50;;;12.00;99.90;;;;;;5048851;28;20075;-72
2023/10/24 01:25:24;;;;;;;5.20;2.40;;;12.00;99.90;;;;;;5063796;28;20025;-71
2023/10/24 01:27:53;;;;;;;5.85;2.03;;;12.00;99.90;;;;;;5050325;28;20156;-72
2023/10/24 01:30:20;;;;;;;3.88;1.90;;;12.00;99.90;;;;;;5062683;28;20133;-72
2023/10/24 01:32:46;;;;;;;5.50;2.13;;;12.00;99.90;;;;;;5049231;28;20028;-72
2023/10/24 01:35:19;;;;;;;4.88;2.05;;;12.10;99.90;;;;;;5059267;28;20102;-72
2023/10/24 01:37:44;;;;;;;3.50;1.63;;;12.10;99.90;;;;;;5052571;28;20611;-72
2023/10/24 01:40:13;;;;;;;5.50;1.20;;;12.20;99.90;;;;;;5068016;28;21141;-73
2023/10/24 01:42:42;;;;;;;1.98;1.00;;;12.40;99.90;;;;;;5047118;28;20054;-72
2023/10/24 01:45:08;;;;;;;2.13;1.20;;;12.60;99.90;;;;;;5067996;28;20469;-73
2023/10/24 01:47:36;;;;;;;5.47;1.13;;;12.70;99.90;;;;;;5056667;28;20042;-72
2023/10/24 01:50:03;;;;;;;6.63;1.38;;;12.80;99.90;;;;;;5059556;28;20153;-72
2023/10/24 01:52:30;;;;;;;1.85;1.17;;;12.90;99.90;;;;;;5051276;28;20620;-72
2023/10/24 01:54:56;;;;;;;3.47;1.40;;;13.00;99.50;;;;;;5061779;28;20051;-73
2023/10/24 01:57:22;;;;;;;4.85;1.85;;;12.90;99.90;;;;;;5058855;28;20032;-73
2023/10/24 01:59:51;;;;;;;7.43;1.65;;;13.00;99.90;;;;;;5058595;28;20036;-72
2023/10/24 02:02:17;;;;;;;7.75;2.20;;;13.00;99.90;;;;;;5047202;28;20378;-72
2023/10/24 02:04:42;;;;;;;9.85;2.72;;;13.00;99.90;;;;;;5043890;28;20051;-71
2023/10/24 02:07:09;;;;;;;8.43;2.97;;;13.10;99.90;;;;;;5064552;28;20039;-72
2023/10/24 02:09:37;;;;;;;9.10;3.20;;;13.10;99.90;;;;;;5041112;28;20416;-71
2023/10/24 02:12:11;;;;;;;14.25;3.80;;;13.10;99.90;;;;;;5059715;28;20206;-71
2023/10/24 02:14:41;;;;;;;8.02;2.42;;;13.10;99.90;;;;;;5047018;28;20503;-71
2023/10/24 02:17:10;;;;;;;5.13;1.92;;;13.00;99.90;;;;;;5059418;28;20040;-71
2023/10/24 02:19:35;;;;;;;5.90;1.67;;;13.10;99.90;;;;;;5054362;28;20067;-71
2023/10/24 02:22:01;;;;;;;10.23;1.88;;;13.00;99.90;;;;;;5052770;28;20138;-70
2023/10/24 02:24:34;;;;;;;9.80;1.80;;;13.00;99.90;;;;;;5049325;28;20043;-70
2023/10/24 02:27:03;;;;;;;7.78;2.00;;;13.00;99.90;;;;;;5062805;28;20059;-70
2023/10/24 02:29:33;;;;;;;4.50;1.10;;;12.90;99.90;;;;;;5042726;28;20109;-70
2023/10/24 02:32:02;;;;;;;3.38;1.00;;;12.90;99.90;;;;;;5065943;28;20057;-70
2023/10/24 02:34:28;;;;;;;5.72;1.42;;;12.80;99.90;;;;;;5049756;28;20709;-70
2023/10/24 02:37:00;;;;;;;7.00;1.30;;;12.90;99.90;;;;;;5060430;28;20032;-70
2023/10/24 02:39:28;;;;;;;7.85;1.40;;;12.70;99.90;;;;;;5054366;28;20067;-70
2023/10/24 02:41:54;;;;;;;6.68;1.50;;;12.80;99.90;;;;;;5060905;28;20032;-70
2023/10/24 02:44:26;;;;;;;4.53;1.10;;;12.70;99.90;;;;;;5052094;28;20138;-70
2023/10/24 02:46:55;;;;;;;3.70;1.52;;;12.70;99.90;;;;;;5066505;28;20020;-71
2023/10/24 02:49:20;;;;;;;6.72;1.70;;;12.70;99.90;;;;;;5053376;28;20044;-70
2023/10/24 02:51:46;;;;;;;3.08;1.30;;;12.70;99.90;;;;;;5062351;28;20064;-70
2023/10/24 02:54:15;;;;;;;6.68;1.40;;;12.70;99.90;;;;;;5060034;28;20716;-71
2023/10/24 02:56:41;;;;;;;7.50;1.58;;;12.70;99.90;;;;;;5055792;28;20512;-71
2023/10/24 02:59:07;;;;;;;6.15;1.75;;;12.70;99.90;;;;;;5064374;28;21063;-71
2023/10/24 03:01:35;;;;;;;4.80;1.38;;;12.70;99.90;;;;;;5046566;28;20024;-71
2023/10/24 03:04:01;;;;;;;2.42;1.17;;;12.70;99.90;;;;;;5063326;28;20271;-71
2023/10/24 03:06:29;;;;;;;7.20;1.70;;;12.70;99.90;;;;;;5054219;28;20485;-72
2023/10/24 03:08:55;;;;;;;6.68;1.63;;;12.70;99.90;;;;;;5059698;28;20482;-72
2023/10/24 03:11:23;;;;;;;7.90;2.30;;;12.60;99.90;;;;;;5051152;28;20436;-72
2023/10/24 03:13:51;;;;;;;9.43;2.45;;;12.70;99.90;;;;;;5063699;28;20133;-72
2023/10/24 03:16:21;;;;;;;6.90;2.38;;;12.70;99.90;;;;;;5043788;28;20108;-72
2023/10/24 03:18:47;;;;;;;7.70;2.08;;;12.70;99.90;;;;;;5061302;28;20046;-72
2023/10/24 03:21:13;;;;;;;7.50;2.40;;;12.80;99.90;;;;;;5053304;28;20060;-71
2023/10/24 03:23:40;;;;;;;6.40;1.85;;;12.80;99.90;;;;;;5061041;28;20070;-72
2023/10/24 03:26:07;;;;;;;4.80;2.10;;;12.80;99.90;;;;;;5052848;28;20028;-71
2023/10/24 03:28:38;;;;;;;7.07;2.17;;;13.00;99.90;;;;;;5062866;28;20028;-72
2023/10/24 03:31:05;;;;;;;8.50;2.65;;;13.00;99.90;;;;;;5052684;28;20036;-72
2023/10/24 03:33:39;;;;;;;7.38;2.17;;;12.90;99.90;;;;;;5062997;28;20245;-72
2023/10/24 03:36:18;;;;;;;9.68;2.13;;;12.90;99.90;;;;;;5047505;28;20028;-73
2023/10/24 03:38:43;;;;;;;6.85;3.15;;;12.80;99.90;;;;;;5066423;28;20119;-73
2023/10/24 03:41:11;;;;;;;13.32;3.47;;;12.80;99.90;;;;;;5053826;28;20043;-72
2023/10/24 03:43:39;;;;;;;11.02;3.67;;;12.70;99.90;;;;;;5064208;28;20035;-72
2023/10/24 03:46:06;;;;;;;10.20;3.40;;;12.60;99.90;;;;;;5050052;28;20404;-72
2023/10/24 03:48:34;;;;;;;11.88;3.55;;;12.50;99.90;;;;;;5064236;28;20453;-72
2023/10/24 03:51:02;;;;;;;7.40;3.97;;;12.50;99.90;;;;;;5060727;28;20417;-73
2023/10/24 03:53:33;;;;;;;9.98;3.60;;;12.40;99.90;;;;;;5055731;28;20060;-72
2023/10/24 03:55:59;;;;;;;9.52;4.20;;;12.40;99.90;;;;;;5059443;28;20481;-72
2023/10/24 03:58:29;;;;;;;7.13;3.88;;;12.40;99.90;;;;;;5054004;28;20035;-73
2023/10/24 04:00:55;;;;;;;6.10;3.45;;;12.40;99.90;;;;;;5060387;28;20245;-72
2023/10/24 04:03:23;;;;;;;13.95;3.72;;;12.40;99.90;;;;;;5038774;28;20271;-72
2023/10/24 04:05:51;;;;;;;12.30;3.90;;;12.30;99.90;;;;;;5060722;28;20032;-72
2023/10/24 04:08:19;;;;;;;10.80;5.10;;;12.30;99.90;;;;;;5050175;28;20701;-72
2023/10/24 04:10:47;;;;;;;12.95;4.40;;;12.20;99.90;;;;;;5058248;28;20028;-75
2023/10/24 04:13:18;;;;;;;5.45;2.47;;;12.10;99.90;;;;;;5042896;28;20058;-73
2023/10/24 04:15:47;;;;;;;4.88;2.10;;;12.20;99.90;;;;;;5056748;28;20466;-73
2023/10/24 04:18:12;;;;;;;5.55;2.30;;;12.30;99.90;;;;;;5046922;28;20047;-72
2023/10/24 04:20:49;;;;;;;6.32;1.90;;;12.40;99.90;;;;;;5060301;28;20044;-73
2023/10/24 04:23:15;;;;;;;8.80;1.83;;;12.50;99.90;;;;;;5044744;28;20039;-72
2023/10/24 04:25:43;;;;;;;9.70;3.20;;;12.50;99.90;;;;;;5067861;28;20036;-72
2023/10/24 04:28:11;;;;;;;6.95;3.53;;;12.50;99.90;;;;;;5056248;28;20068;-73
2023/10/24 04:30:41;;;;;;;5.82;4.13;;;12.50;99.90;;;;;;5062253;28;20036;-73
2023/10/24 04:33:08;;;;;;;8.98;4.90;;;12.40;99.90;;;;;;5057112;28;20051;-73
2023/10/24 04:35:47;;;;;;;7.35;4.97;;;12.20;99.90;;;;;;5065478;28;20043;-72
2023/10/24 04:38:13;;;;;;;;;;;12.10;99.90;;;;;;5057769;28;20043;-73
2023/10/24 04:40:53;;;;;;;9.63;4.53;;;12.00;99.90;;;;;;5069986;28;19923;-73
2023/10/24 04:43:19;;;;;;;13.02;4.90;;;11.90;99.90;;;;;;5054772;28;20513;-73
2023/10/24 04:45:47;;;;;;;13.23;5.07;;;11.80;99.90;;;;;;5069599;28;20266;-73
2023/10/24 04:48:13;;;;;;;8.45;4.78;;;11.70;99.90;;;;;;5055539;28;20024;-72
2023/10/24 04:50:46;;;;;;;12.25;5.78;;;11.60;99.90;;;;;;5062263;28;20031;-73
2023/10/24 04:53:14;;;;;;;10.07;5.10;;;11.50;99.90;;;;;;5058650;28;20036;-72
2023/10/24 04:55:40;;;;;;;11.15;5.80;;;11.40;99.90;;;;;;5064013;28;20047;-73
2023/10/24 04:58:13;;;;;;;13.20;6.13;;;11.40;99.90;;;;;;5066217;28;20028;-73
2023/10/24 05:00:44;;;;;;;10.15;6.50;;;11.30;99.90;;;;;;5056054;28;20059;-73
2023/10/24 05:03:12;;;;;;;13.20;6.97;;;11.20;99.90;;;;;;5064860;28;20825;-73
2023/10/24 05:05:38;;;;;;;9.80;6.45;;;11.30;99.90;;;;;;5055733;28;20033;-73
2023/10/24 05:08:10;;;;;;;11.25;6.72;;;11.20;99.90;;;;;;5068599;28;20025;-73
2023/10/24 05:10:36;;;;;;;11.68;7.72;;;11.20;99.90;;;;;;5049485;28;20043;-73
2023/10/24 05:13:02;;;;;;;12.50;6.78;;;11.20;99.90;;;;;;5065692;28;20063;-73
2023/10/24 05:15:48;;;;;;;9.43;6.97;;;11.20;99.90;;;;;;5054073;28;20118;-73
2023/10/24 05:18:15;;;;;;;17.05;7.35;;;11.20;99.90;;;;;;5065156;28;20123;-73
2023/10/24 05:20:43;;;;;;;10.35;6.30;;;11.20;99.90;;;;;;5055754;28;20040;-72
2023/10/24 05:23:16;;;;;;;11.90;7.18;;;11.10;99.90;;;;;;5058752;28;20028;-72
2023/10/24 05:25:45;;;;;;;9.82;5.95;;;11.10;99.90;;;;;;5053562;28;20042;-73
2023/10/24 05:28:13;;;;;;;9.75;5.78;;;11.10;99.90;;;;;;5067725;28;20061;-72
2023/10/24 05:30:39;;;;;;;12.05;6.05;;;11.00;99.90;;;;;;5059485;28;20056;-73
2023/10/24 05:33:08;;;;;;;9.85;5.85;;;11.00;99.90;;;;;;5081005;28;20181;-73
2023/10/24 05:35:38;;;;;;;10.68;5.45;;;11.00;99.90;;;;;;5056504;28;20523;-73
2023/10/24 05:38:06;;;;;;;7.00;5.13;;;11.00;99.90;;;;;;5049448;28;20055;-73
2023/10/24 05:40:32;;;;;;;10.88;5.10;;;11.00;99.90;;;;;;5053822;28;20032;-73
2023/10/24 05:43:01;;;;;;;10.93;5.38;;;10.90;99.90;;;;;;5062125;28;20025;-72
2023/10/24 05:45:27;;;;;;;8.95;4.90;;;10.90;99.90;;;;;;5051192;28;20040;-72
2023/10/24 05:47:55;;;;;;;10.00;5.32;;;10.90;99.90;;;;;;5065991;28;20036;-73
2023/10/24 05:50:24;;;;;;;6.47;4.90;;;10.90;99.90;;;;;;5046315;28;20118;-73
2023/10/24 05:52:57;;;;;;;9.63;5.03;;;10.90;99.90;;;;;;5064207;28;20131;-73
2023/10/24 05:55:23;;;;;;;7.05;5.45;;;10.80;99.90;;;;;;5047637;28;20036;-73
2023/10/24 05:57:51;;;;;;;7.72;5.07;;;10.80;99.90;;;;;;5056483;28;20043;-75
2023/10/24 06:00:17;;;;;;;9.50;5.57;;;10.80;99.90;;;;;;5065554;28;21527;-73
2023/10/24 06:02:43;;;;;;;7.38;4.78;;;10.80;99.90;;;;;;5044495;28;20042;-73
2023/10/24 06:05:09;;;;;;;8.82;5.68;;;10.80;99.90;;;;;;5058174;28;21528;-73
2023/10/24 06:07:42;;;;;;;10.63;5.45;;;10.80;99.90;;;;;;5052369;28;20089;-73
2023/10/24 06:10:10;;;;;;;8.02;5.70;;;10.80;99.90;;;;;;5059578;28;20032;-73
2023/10/24 06:12:36;;;;;;;8.43;5.70;;;10.70;99.90;;;;;;5036944;28;20036;-72
2023/10/24 06:15:06;;;;;;;10.00;5.60;;;10.70;99.90;;;;;;5061026;28;20528;-72
2023/10/24 06:17:35;;;;;;;12.20;5.25;;;10.70;99.90;;;;;;5044792;28;20121;-72
2023/10/24 06:20:04;;;;;;;7.95;5.32;;;10.60;99.90;;;;;;5060943;28;20124;-73
2023/10/24 06:22:32;;;;;;;11.65;5.30;;;10.60;99.90;;;;;;5050172;28;20135;-73
2023/10/24 06:24:58;;;;;;;10.40;4.68;;;10.50;99.90;;;;;;5054214;28;20036;-73
2023/10/24 06:27:26;;;;;;;6.30;4.35;;;10.50;99.90;;;;;;5051370;28;20048;-73
2023/10/24 06:29:52;;;;;;;10.13;5.70;;;10.50;99.90;;;;;;5063635;28;20384;-73
2023/10/24 06:32:28;;;;;;;8.50;4.90;;;10.40;99.90;;;;;;5051592;28;20111;-72
2023/10/24 06:34:53;;;;;;;9.63;5.15;;;10.40;99.90;;;;;;5061683;28;20655;-72
2023/10/24 06:37:22;;;;;;;7.40;5.07;;;10.30;99.90;;;;;;5052040;28;20044;-72
2023/10/24 06:39:48;;;;;;;11.90;5.33;;;10.20;99.90;;;;;;5062279;28;20036;-72
2023/10/24 06:42:20;;;;;;;6.82;4.93;;;10.20;99.90;;;;;;5048561;28;20121;-72
2023/10/24 06:44:48;;;;;;;8.57;5.05;;;10.10;99.90;;;;;;5053463;28;20532;-73
2023/10/24 06:47:17;;;;;;;9.73;5.97;;;10.20;99.90;;;;;;5050751;28;20040;-72
2023/10/24 06:49:50;;;;;;;7.80;5.53;;;10.10;99.90;;;;;;5061127;28;20124;-73
2023/10/24 06:52:16;;;;;;;8.95;5.93;;;10.00;99.90;;;;;;5050493;28;20043;-74
2023/10/24 06:54:49;;;;;;;7.50;5.00;;;10.00;99.90;;;;;;5065278;28;20064;-73
2023/10/24 06:57:18;;;;;;;8.15;5.32;;;10.00;99.90;;;;;;5051155;28;20047;-73
2023/10/24 06:59:46;;;;;;;8.05;6.00;;;10.00;99.90;;;;;;5062035;28;20529;-74
2023/10/24 07:02:12;;;;;;;8.20;5.97;;;10.00;99.90;;;;;;5061429;28;20036;-73
2023/10/24 07:04:48;;;;;;;12.15;7.28;;;10.00;99.90;;;;;;5047418;28;20032;-74
2023/10/24 07:07:16;;;;;;;12.07;6.63;;;10.10;99.90;;;;;;5062695;28;20039;-73
2023/10/24 07:09:47;;;;;;;9.18;6.93;;;10.10;99.90;;;;;;5050047;28;20654;-72
2023/10/24 07:12:13;;;;;;;12.30;7.15;;;10.20;99.90;;;;;;5063040;28;21149;-73
2023/10/24 07:14:39;;;;;;;10.15;7.25;;;10.20;99.90;;;;;;5051154;28;20700;-73
2023/10/24 07:17:12;;;;;;;8.90;6.32;;;10.30;99.90;;;;;;5059653;28;20048;-73
2023/10/24 07:19:38;;;;;;;7.53;6.18;;;10.20;99.90;;;;;;5052904;28;20036;-75
2023/10/24 07:22:06;;;;;;;7.82;5.95;;;10.20;99.90;;;;;;5061961;28;20032;-74
2023/10/24 07:24:32;;;;;;;7.55;6.05;;;10.20;99.90;;;;;;5046525;28;20048;-74
2023/10/24 07:27:00;;;;;;;9.50;5.95;;;10.20;99.90;;;;;;5062422;28;20104;-74
2023/10/24 07:29:30;;;;;;;9.35;6.45;;;10.20;99.90;;;;;;5049433;28;20033;-74
2023/10/24 07:31:57;;;;;;;9.23;6.63;;;10.20;99.90;;;;;;5058741;28;20151;-74
2023/10/24 07:34:25;;;;;;;10.00;6.68;;;10.20;99.90;;;;;;5053188;28;20037;-72
2023/10/24 07:36:51;;;;;;;10.02;7.05;;;10.30;99.90;;;;;;5062106;28;20087;-72
2023/10/24 07:39:17;;;;;;;8.05;5.97;;;10.20;99.90;;;;;;5053958;28;20552;-72
2023/10/24 07:41:45;;;;;;;8.40;5.75;;;10.20;99.90;;;;;;5064659;28;21881;-72
2023/10/24 07:44:14;;;;;;;7.03;5.80;;;10.20;99.90;;;;;;5049851;28;20032;-71
2023/10/24 07:46:39;;;;;;;8.05;5.80;;;10.20;99.90;;;;;;5060887;28;20032;-72
2023/10/24 07:49:07;;;;;;;7.35;5.75;;;10.20;99.90;;;;;;5050941;28;20036;-73
2023/10/24 07:51:38;;;;;;;8.23;5.60;;;10.20;99.90;;;;;;5057976;28;20041;-72
2023/10/24 07:54:04;;;;;;;9.35;4.75;;;10.30;99.90;;;;;;5061299;28;20148;-72
2023/10/24 07:56:32;;;;;;;10.73;4.93;;;10.30;99.90;;;;;;5051307;28;20477;-72
2023/10/24 07:59:00;;;;;;;6.17;3.90;;;10.50;99.90;;;;;;5058025;28;20034;-73
2023/10/24 08:01:26;;;;;;;6.40;3.58;;;10.60;99.90;;;;;;5046002;28;20040;-73
2023/10/24 08:03:52;;;;;;;6.55;2.92;;;10.70;99.90;;;;;;5058398;28;20084;-72
2023/10/24 08:06:23;;;;;;;9.32;2.47;;;10.80;99.90;;;;;;5052637;28;20040;-73
2023/10/24 08:08:49;;;;;;;5.38;2.20;;;10.90;99.90;;;;;;5066145;28;20118;-73
2023/10/24 08:11:15;;;;;;;3.70;1.67;;;11.00;99.90;;;;;;5070033;28;20103;-73
2023/10/24 08:13:45;;;;;;;3.78;1.65;;;11.10;99.90;;;;;;5076648;28;20439;-73
2023/10/24 08:16:11;;;;;;;5.53;1.40;;;11.10;99.90;;;;;;5044298;28;20119;-72
2023/10/24 08:18:40;;;;;;;4.38;1.40;;;11.30;99.90;;;;;;5056559;28;20158;-73
2023/10/24 08:21:08;;;;;;;3.35;1.20;;;11.40;99.90;;;;;;5048710;28;20051;-72
2023/10/24 08:23:38;;;;;;;4.40;1.33;;;11.60;99.90;;;;;;5053454;28;20028;-72
2023/10/24 08:26:04;;;;;;;4.07;1.35;;;11.70;99.90;;;;;;5041204;28;20040;-73
2023/10/24 08:28:33;;;;;;;3.00;1.00;;;11.80;99.90;;;;;;5059674;28;20029;-74
2023/10/24 08:30:58;;;;;;;7.65;1.00;;;12.00;99.90;;;;;;5048249;28;20036;-73
2023/10/24 08:33:33;;;;;;;4.47;0.60;;;12.10;99.90;;;;;;5064685;28;20390;-74
2023/10/24 08:36:08;;;;;;;4.75;0.98;;;12.20;99.90;;;;;;5055023;28;20028;-73
2023/10/24 08:38:34;;;;;;;3.03;0.73;;;12.20;99.90;;;;;;5061360;28;20036;-73
2023/10/24 08:41:00;;;;;;;3.97;1.40;;;12.20;99.90;;;;;;5049651;28;20717;-73
2023/10/24 08:43:31;;;;;;;4.97;0.75;;;12.10;99.90;;;;;;5061259;28;20044;-74
2023/10/24 08:46:03;;;;;;;3.83;0.70;;;12.10;99.90;;;;;;5055612;28;20032;-73
2023/10/24 08:48:33;;;;;;;0.80;0.60;;;12.00;99.90;;;;;;5061478;28;20025;-72
2023/10/24 08:50:59;;;;;;;6.55;0.70;;;12.10;99.90;;;;;;5055142;28;20032;-73
2023/10/24 08:53:26;;;;;;;8.38;1.10;;;12.20;99.90;;;;;;5054354;28;20032;-73
2023/10/24 08:55:57;;;;;;;4.20;0.77;;;12.30;99.90;;;;;;5065981;28;20048;-73
2023/10/24 08:58:28;;;;;;;3.45;0.90;;;12.40;99.90;;;;;;5046871;28;20046;-73
2023/10/24 09:00:54;;;;;;;4.70;1.13;;;12.60;99.90;;;;;;5061376;28;20044;-72
2023/10/24 09:03:26;;;;;;;5.13;0.60;;;12.70;99.80;;;;;;5044412;28;20081;-73
2023/10/24 09:05:57;;;;;;;5.40;0.75;;;12.70;99.20;;;;;;5054883;28;20115;-71
2023/10/24 09:08:25;;;;;;;4.85;0.77;;;12.60;99.40;;;;;;5049964;28;20377;-72
2023/10/24 09:10:51;;;;;;;2.92;0.98;;;12.50;99.20;;;;;;5056443;28;20425;-71
2023/10/24 09:13:20;;;;;;;4.57;0.82;;;12.40;99.00;;;;;;5050849;28;20306;-72
2023/10/24 09:16:07;;;;;;;6.25;0.93;;;12.40;99.10;;;;;;5062431;28;20046;-73
2023/10/24 09:18:35;;;;;;;5.10;1.00;;;12.40;99.20;;;;;;5046594;28;20061;-73
2023/10/24 09:21:04;;;;;;;5.03;1.17;;;12.50;99.30;;;;;;5059432;28;20070;-73
2023/10/24 09:23:34;;;;;;;5.72;1.20;;;12.70;99.20;;;;;;5047265;28;20052;-73
2023/10/24 09:26:08;;;;;;;3.88;1.25;;;12.70;99.30;;;;;;5056347;28;20041;-73
2023/10/24 09:28:34;;;;;;;3.95;1.25;;;12.90;98.60;;;;;;5051776;28;20028;-73
2023/10/24 09:31:01;;;;;;;3.40;1.48;;;13.00;98.40;;;;;;5058892;28;20034;-73
2023/10/24 09:33:27;;;;;;;3.55;1.30;;;13.10;98.20;;;;;;5048757;28;20396;-73
2023/10/24 09:35:54;;;;;;;4.55;1.30;;;13.20;97.50;;;;;;5060157;28;20382;-73
2023/10/24 09:38:24;;;;;;;2.83;1.40;;;13.30;97.30;;;;;;5039007;28;20032;-73
2023/10/24 09:40:51;;;;;;;5.00;0.85;;;13.40;96.70;;;;;;5061618;28;20111;-73
2023/10/24 09:43:22;;;;;;;3.30;0.77;;;13.50;96.10;;;;;;5051534;28;20032;-74
2023/10/24 09:45:51;;;;;;;3.17;0.70;;;13.50;96.40;;;;;;5060289;28;20074;-74
2023/10/24 09:48:17;;;;;;;7.63;1.02;;;13.60;96.30;;;;;;5054033;28;20024;-73
2023/10/24 09:50:48;;;;;;;2.95;0.95;;;13.70;96.00;;;;;;5055294;28;20066;-73
2023/10/24 09:53:21;;;;;;;6.50;1.08;;;13.80;96.50;;;;;;5049642;28;20032;-74
2023/10/24 09:55:48;;;;;;;7.18;1.75;;;14.00;96.30;;;;;;5055555;28;20038;-73
2023/10/24 09:58:20;;;;;;;5.68;2.20;;;14.20;95.20;;;;;;5045754;28;20406;-75
2023/10/24 10:00:47;;;;;;;4.40;1.00;;;14.30;94.70;;;;;;5059875;28;20035;-73
2023/10/24 10:03:15;;;;;;;8.68;1.08;;;14.30;94.40;;;;;;5058515;28;20024;-73
2023/10/24 10:05:48;;;;;;;4.38;0.85;;;14.40;94.10;;;;;;5042193;28;20077;-73
2023/10/24 10:08:16;;;;;;;6.82;0.70;;;14.40;94.40;;;;;;5055518;28;21334;-73
2023/10/24 10:10:47;;;;;;;5.10;2.70;;;14.60;94.30;;;;;;5042794;28;20083;-73
2023/10/24 10:13:16;;;;;;;7.07;4.35;;;14.80;94.00;;;;;;5053891;28;20033;-74
2023/10/24 10:16:16;;;;;;;9.55;2.15;;;15.00;93.70;;;;;;5051140;28;20536;-73
2023/10/24 10:19:21;;;;;;;7.78;2.35;;;15.00;92.90;;;;;;5057800;28;20036;-73
2023/10/24 10:22:19;;;;;;;5.47;1.08;;;14.90;92.70;;;;;;5057683;28;20056;-73
2023/10/24 10:25:20;;;;;;;8.30;0.88;;;15.00;93.60;;;;;;5042424;28;20036;-73
2023/10/24 10:28:19;;;;;;;7.43;1.35;;;15.10;93.30;;;;;;5060536;28;20111;-73
2023/10/24 10:31:23;;;;;;;3.65;0.80;;;15.30;93.30;;;;;;5049198;28;20405;-73
2023/10/24 10:33:55;;;;;;;7.50;0.93;;;15.40;93.50;;;;;;5050291;28;20044;-73
2023/10/24 10:36:20;;;;;;;4.82;0.88;;;15.40;92.60;;;;;;5050182;28;20035;-73
2023/10/24 10:38:48;;;;;;;8.25;1.00;;;15.40;92.90;;;;;;5054209;28;20059;-73
2023/10/24 10:41:33;;;;;;;7.88;1.40;;;15.30;92.90;;;;;;5049464;28;20317;-74
2023/10/24 10:44:01;;;;;;;6.15;0.80;;;15.00;93.00;;;;;;5058452;28;20032;-73
2023/10/24 10:46:32;;;;;;;3.40;1.08;;;14.90;93.10;;;;;;5052187;28;20032;-73
2023/10/24 10:49:07;;;;;;;3.92;0.98;;;14.70;93.60;;;;;;5066310;28;20077;-73
2023/10/24 10:51:36;;;;;;;6.05;1.13;;;14.60;94.30;;;;;;5043354;28;20046;-73
2023/10/24 10:54:31;;;;;;;10.93;1.05;;;14.40;95.00;;;;;;5060281;28;21165;-73
2023/10/24 10:57:03;;;;;;;9.43;1.02;;;14.30;95.60;;;;;;5060929;28;20020;-73
2023/10/24 10:59:34;;;;;;;6.28;0.77;;;14.40;95.60;;;;;;5079406;28;20088;-74
2023/10/24 11:02:38;;;;;;;4.80;1.05;;;14.50;95.30;;;;;;5057415;28;20034;-73
2023/10/24 11:05:46;;;;;;;7.43;1.65;;;14.70;95.10;;;;;;5057994;28;20139;-73
2023/10/24 11:08:18;;;;;;;4.68;1.25;;;14.90;95.00;;;;;;5061085;28;20557;-73
2023/10/24 11:11:02;;;;;;;6.88;1.00;;;15.10;94.50;;;;;;5051787;28;20123;-71
2023/10/24 11:13:47;;;;;;;4.82;1.10;;;15.10;94.00;;;;;;5057918;28;20040;-74
2023/10/24 11:16:13;;;;;;;6.70;1.15;;;15.20;94.10;;;;;;5044963;28;20100;-73
2023/10/24 11:18:45;;;;;;;6.60;0.85;;;15.30;93.10;;;;;;5052698;28;20038;-73
2023/10/24 11:21:17;;;;;;;9.82;0.98;;;15.40;93.30;;;;;;5046266;28;20137;-71
2023/10/24 11:23:46;;;;;;;7.57;0.90;;;15.30;93.20;;;;;;5056886;28;21251;-70
2023/10/24 11:29:23;;;;;;;8.30;1.00;;;15.40;93.70;;;;;;5052306;28;20047;-74
2023/10/24 11:31:56;;;;;;;5.60;1.10;;;15.50;93.90;;;;;;5047341;28;20047;-73
2023/10/24 11:34:22;;;;;;;10.02;1.00;;;15.50;93.60;;;;;;5056511;28;20032;-77
2023/10/24 11:36:48;;;;;;;4.78;1.00;;;15.60;93.40;;;;;;5048970;28;20051;-74
2023/10/24 11:39:14;;;;;;;9.63;1.00;;;15.80;93.40;;;;;;5058465;28;20041;-73
2023/10/24 11:41:44;;;;;;;8.90;0.98;;;16.10;92.90;;;;;;5054427;28;20093;-74
2023/10/24 11:44:12;;;;;;;6.88;1.02;;;16.20;92.70;;;;;;5057294;28;20502;-73
2023/10/24 11:46:42;;;;;;;6.72;1.30;;;16.20;92.10;;;;;;5061205;28;20031;-74
2023/10/24 11:49:08;;;;;;;5.47;1.00;;;16.20;91.80;;;;;;5057463;28;20036;-73
2023/10/24 11:51:36;;;;;;;6.72;1.17;;;16.20;92.00;;;;;;5064132;28;20032;-74
2023/10/24 11:54:06;;;;;;;10.65;1.27;;;16.30;91.20;;;;;;5051406;28;20070;-75
2023/10/24 11:56:35;;;;;;;4.43;1.02;;;16.50;91.90;;;;;;5059311;28;20125;-73
2023/10/24 11:59:02;;;;;;;;;;;16.60;90.10;;;;;;5043327;28;20437;-74
2023/10/24 12:01:29;;;;;;;9.63;1.30;;;16.80;91.00;;;;;;5062613;28;20073;-73
2023/10/24 12:03:56;;;;;;;6.13;0.88;;;17.10;90.70;;;;;;5050979;28;21232;-73
2023/10/24 12:06:23;;;;;;;9.73;1.20;;;17.50;88.00;;;;;;5061189;28;20139;-73
2023/10/24 12:08:49;;;;;;;10.70;1.05;;;17.70;86.30;;;;;;5051455;28;20032;-73
2023/10/24 12:11:16;;;;;;;3.90;0.98;;;17.80;85.40;;;;;;5062020;28;20032;-72
2023/10/24 12:13:41;;;;;;;9.48;1.10;;;17.90;85.10;;;;;;5047562;28;20086;-72
2023/10/24 12:16:08;;;;;;;9.57;0.98;;;17.80;84.30;;;;;;5064286;28;20709;-75
2023/10/24 12:18:36;;;;;;;8.13;1.15;;;17.60;85.20;;;;;;5048528;28;20039;-74
2023/10/24 12:21:04;;;;;;;5.47;1.20;;;17.70;86.70;;;;;;5066054;28;20098;-74
2023/10/24 12:23:31;;;;;;;6.22;1.33;;;17.80;84.00;;;;;;5056230;28;20024;-73
2023/10/24 12:25:59;;;;;;;10.40;1.50;;;17.80;83.60;;;;;;5056967;28;20043;-74
2023/10/24 12:28:32;;;;;;;8.48;1.17;;;17.60;83.20;;;;;;5051944;28;20036;-73
2023/10/24 12:31:15;;;;;;;10.32;1.23;;;17.40;85.50;;;;;;5062434;28;20035;-73
2023/10/24 12:33:46;;;;;;;10.25;1.00;;;17.30;86.70;;;;;;5050356;28;20043;-73
2023/10/24 12:36:20;;;;;;;5.80;1.02;;;17.40;85.70;;;;;;5061305;28;20627;-75
2023/10/24 12:38:46;;;;;;;7.68;1.00;;;17.50;85.90;;;;;;5043536;28;20040;-73
2023/10/24 12:41:14;;;;;;;7.18;0.95;;;17.40;85.00;;;;;;5061025;28;20036;-75
2023/10/24 12:43:47;;;;;;;8.60;1.30;;;17.40;84.70;;;;;;5057232;28;20024;-74
2023/10/24 12:46:17;;;;;;;7.38;1.00;;;17.30;84.30;;;;;;5057817;28;21377;-72
2023/10/24 12:48:54;;;;;;;4.07;0.80;;;17.30;85.20;;;;;;5064973;28;20021;-72
2023/10/24 12:51:19;;;;;;;6.63;0.80;;;17.20;84.90;;;;;;5064910;28;20033;-73
2023/10/24 12:53:45;;;;;;;11.82;1.42;;;17.10;86.20;;;;;;5065867;28;20057;-74
2023/10/24 12:56:12;;;;;;;7.85;1.40;;;16.90;86.20;;;;;;5054835;28;20443;-72
2023/10/24 12:58:41;;;;;;;8.63;1.38;;;16.70;87.20;;;;;;5058479;28;20036;-73
2023/10/24 13:01:09;;;;;;;7.73;0.63;;;16.70;87.10;;;;;;5047457;28;20109;-75